北京 の空港の天気 - METARとTAF

北京首都国際空港 ( ZBAA / PEK ) - 中国 北京市
飛行場実況気象(Metar)
観測時間04/22 00:30 CST (04/21 16:30 UTC)
風向・風速東南東 2m/s
視程10km以上
天気現象
なし
気温12℃
湿度58%
気圧1013hPa
METARZBAA 211630Z 12002MPS CAVOK 12/04 Q1013 NOSIG
過去の天気等 Google飛行場航空写真 Wunderground天気予報

過去48時間のMETAR

飛行場予報(TAF)
発表時間: 4/21 17:30 CST (4/21 09:30 UTC)
予報対象時間: 21日20時 CST ~ 22日20時 CST
風向・風速南 4m/s
視程5000m
天気現象もや
なし
TAF ZBAA 210930Z 2112/2212 18004MPS 5000 BR NSC TX26/2207Z TN06/2121Z